TFM - Tactical Decision Aid (Experimental) INFO Settings
ID: Runway Winds: CIG/VIS Threshold: METAR Board: Map:

Kclt - Charlotte-Douglas Intl

Updated at: 1008 UTC 04 Jul 2015
Latest TAF at: 0857 UTC 04 Jul 2015

TAF Board

Time0952Z04/11Z04/12Z04/13Z04/14Z04/15Z04/16Z04/17Z04/18Z04/19Z04/20Z04/21Z04/22Z04/23Z
TypeOBSPRVLPRVLPRVL
  [TEMP]  
PRVL
  [TEMP]  
PRVL
  [TEMP]  
PRVL
  [TEMP]  
PRVLPRVLPRVLPRVL
  [PRB30]  
PRVL
  [PRB30]  
PRVL
  [PRB30]  
PRVL
  [PRB30]  
VIS10>6>6>6
  [4]  
>6
  [4]  
>6
  [4]  
>6
  [4]  
>6>6>6>6
  [4]  
>6
  [4]  
>6
  [4]  
>6
  [4]  
CIG1101005050
  [40]  
50
  [40]  
50
  [40]  
50
  [40]  
50505050
  [40]  
50
  [40]  
50
  [40]  
50
  [40]  
CoverOVCOVCBKNBKN
  [BKN]  
BKN
  [BKN]  
BKN
  [BKN]  
BKN
  [BKN]  
BKNBKNBKNBKN
  [BKN]  
BKN
  [BKN]  
BKN
  [BKN]  
BKN
  [BKN]  
FltCatVFRVFRVFRVFR
  [MVFR]  
VFR
  [MVFR]  
VFR
  [MVFR]  
VFR
  [MVFR]  
VFRVFRVFRVFR
  [MVFR]  
VFR
  [MVFR]  
VFR
  [MVFR]  
VFR
  [MVFR]  
WX----VCSHVCSH
  [TSRA]  
VCSH
  [TSRA]  
VCSH
  [TSRA]  
VCSH
  [TSRA]  
--------
  [TSRA]  
--
  [TSRA]  
--
  [TSRA]  
--
  [TSRA]  
WDir210240250250
[250]
250
[250]
250
[250]
250
[250]
240240240240
[240]
240
[240]
240
[240]
240
[240]
WSpd1071111
  [11]  
11
  [11]  
11
  [11]  
11
  [11]  
14141414
  [14]  
14
  [14]  
14
  [14]  
14
  [14]  
WGst----1818
  [18]  
18
  [18]  
18
  [18]  
18
  [18]  
22222222
  [22]  
22
  [22]  
22
  [22]  
22
  [22]  
TAF
KCLT 040857Z 0409/0506 24007KT P6SM BKN100 OVC150
  FM041200 25011G18KT P6SM VCSH BKN050
  TEMPO 0413/0417 4SM TSRA BKN040CB
  FM041700 24014G22KT P6SM BKN050
  PROB30 0420/0424 4SM TSRA BKN040CB
  FM050000 25007KT P6SM BKN200
  FM050200 22004KT P6SM BKN250


METAR
KCLT 040952Z 21010KT 10SM BKN110 OVC140 23/18 A2998 RMK AO2 SLP142 T02330183 $
KCLT 040852Z 24005KT 10SM BKN095 BKN110 OVC140 23/18 A2996 RMK AO2 SLP136 T02330178 53001 $

TAF/METAR Board Legend

Potential Impact
  None Marginal Slight Moderate High
Visibility (sm) > ≤X≤ <
Ceiling (100 ft) > ≤X≤ <
Wind Speed (kt) <10 10≤X<20 20≤X<30 ≥30
Wind Gust (kt) <15 15≤X<25 25≤X<35 ≥35
Weather No Wx Reported VCTS -TS,-FZRA TS,FZRA +TS,+FZRA